Flight Track Log - Related Links

Times and Time Zones

All times are in EDT time to prevent confusion due to time zone crossing. See the GJS3657 flight status page for this flight to view local times or setup timezone preferences in your user account.

Time Position Orientation Groundspeed Altitude Reporting Facility
EDT Latitude Longitude Course Direction KTS MPH feet Rate Location/Type
Tue 11:09:37 PM 42.0000 -87.9333 360° North 160 184 1,400  Level Chicago TRACON
Tue 11:10:37 PM 42.0500 -87.9333 360° North 196 226 3,000 1,750 Climbing Chicago TRACON
Tue 11:11:37 PM 42.1000 -87.9167 14° North 234 269 4,900 1,333 Climbing Chicago TRACON
Tue 11:12:07 PM 42.1322 -87.9089 10° North 226 260 5,000 65 Climbing Chicago Center
Tue 11:13:09 PM 42.1994 -87.8908 11° North 243 280 5,000 780 Level Chicago Center
Tue 11:14:10 PM 42.2672 -87.8656 15° North 252 290 6,600 2,213 Climbing Chicago Center
Tue 11:15:11 PM 42.3467 -87.8317 17° North 265 305 9,500 2,557 Climbing Chicago Center
Tue 11:16:12 PM 42.4200 -87.7939 21° North 275 316 11,800 2,195 Climbing Chicago Center
Tue 11:17:14 PM 42.4956 -87.7544 21° North 287 330 14,000 2,000 Climbing Chicago Center
Tue 11:18:15 PM 42.5814 -87.7208 16° North 299 344 15,900 1,623 Climbing Chicago Center
Tue 11:19:16 PM 42.6633 -87.6911 15° North 319 367 17,300 1,230 Climbing Chicago Center
Tue 11:20:17 PM 42.7589 -87.6583 14° North 350 403 18,400 1,082 Climbing Chicago Center
Tue 11:21:18 PM 42.8522 -87.5911 28° Northeast 396 456 19,500 1,171 Climbing Chicago Center
Tue 11:22:20 PM 42.9397 -87.4542 49° Northeast 411 473 20,800 1,268 Climbing Chicago Center
Tue 11:23:21 PM 43.0103 -87.3442 49° Northeast 420 483 22,100 1,328 Climbing Chicago Center
Tue 11:24:22 PM 43.0883 -87.2211 49° Northeast 427 491 23,500 1,377 Climbing Chicago Center
Tue 11:25:23 PM 43.1672 -87.0964 49° Northeast 431 496 24,900 1,279 Climbing Chicago Center
Tue 11:26:24 PM 43.2439 -86.9733 49° Northeast 426 490 26,100 1,073 Climbing Chicago Center
Tue 11:27:26 PM 43.3225 -86.8467 50° Northeast 432 497 27,100 976 Climbing Chicago Center
Tue 11:28:27 PM 43.4033 -86.7169 49° Northeast 442 509 28,100 885 Climbing Chicago Center
Tue 11:29:28 PM 43.5008 -86.5581 50° Northeast 450 518 28,900 689 Climbing Chicago Center
Tue 11:30:29 PM 43.5853 -86.4228 49° Northeast 460 529 29,500 541 Climbing Chicago Center
Tue 11:31:30 PM 43.6714 -86.2819 50° Northeast 475 547 30,000 488 Climbing Chicago Center
Tue 11:32:32 PM 43.7564 -86.1403 50° Northeast 477 549 30,500 488 Climbing Chicago Center
Tue 11:33:33 PM 43.8436 -85.9975 50° Northeast 484 557 31,000 246 Climbing Chicago Center
Tue 11:34:34 PM 43.9214 -85.8669 50° Northeast 477 549 31,000  Level Chicago Center
Tue 11:35:35 PM 44.0025 -85.7244 52° Northeast 473 544 31,000  Level Chicago Center
Tue 11:36:36 PM 44.0497 -85.5131 73° East 482 555 31,000  Level Chicago Center
Tue 11:37:37 PM 44.0864 -85.3294 74° East 492 566 31,000  Level Chicago Center
Tue 11:38:39 PM 44.1228 -85.1456 75° East 495 570 31,000  Level Chicago Center
Tue 11:39:40 PM 44.1581 -84.9631 75° East 493 567 31,000  Level Chicago Center
Tue 11:40:41 PM 44.1933 -84.7822 75° East 487 560 31,000  Level Chicago Center
Tue 11:41:42 PM 44.2289 -84.6000 75° East 490 564 31,000  Level Chicago Center
Tue 11:42:58 PM 44.2667 -84.3333 79° East 500 575 31,000  Level Toronto Center
Tue 11:43:58 PM 44.3000 -84.1500 76° East 500 575 31,000  Level Toronto Center
Tue 11:44:58 PM 44.3333 -83.9667 76° East 500 575 31,000  Level Toronto Center
Tue 11:45:58 PM 44.3500 -83.7833 83° East 500 575 31,000  Level Toronto Center
Tue 11:46:58 PM 44.4000 -83.6000 69° East 490 564 31,000  Level Toronto Center
Tue 11:47:58 PM 44.4333 -83.4167 76° East 490 564 31,000  Level Toronto Center
Tue 11:48:58 PM 44.4333 -83.2333 90° East 500 575 31,000  Level Toronto Center
Tue 11:49:58 PM 44.4000 -83.0167 102° East 510 587 31,000  Level Toronto Center
Tue 11:50:58 PM 44.3833 -82.8333 97° East 510 587 31,000  Level Toronto Center
Tue 11:51:58 PM 44.3667 -82.6167 96° East 510 587 31,000  Level Toronto Center
Tue 11:52:58 PM 44.3500 -82.4333 97° East 500 575 31,000  Level Toronto Center
Tue 11:53:58 PM 44.3333 -82.2500 97° East 500 575 31,000  Level Toronto Center
Tue 11:54:58 PM 44.3000 -82.0500 103° East 500 575 31,000  Level Toronto Center
Tue 11:55:58 PM 44.3000 -81.8667 90° East 510 587 31,000  Level Toronto Center
Tue 11:56:58 PM 44.2833 -81.6667 97° East 510 587 31,000  Level Toronto Center
Tue 11:57:58 PM 44.2667 -81.4667 97° East 500 575 31,000  Level Toronto Center
Tue 11:58:58 PM 44.2333 -81.2667 103° East 500 575 31,000  Level Toronto Center
Tue 11:59:58 PM 44.2167 -81.0833 97° East 510 587 31,000  Level Toronto Center
Wed 12:00:58 AM 44.2000 -80.8833 97° East 510 587 31,000  Level Toronto Center
Wed 12:01:58 AM 44.2000 -80.6833 90° East 510 587 31,000  Level Toronto Center
Wed 12:02:58 AM 44.1667 -80.5000 104° East 510 587 31,000  Level Toronto Center
Wed 12:03:58 AM 44.1500 -80.3000 97° East 510 587 31,000  Level Toronto Center
Wed 12:04:58 AM 44.1333 -80.1167 97° East 500 575 31,000  Level Toronto Center
Wed 12:05:58 AM 44.1167 -79.9167 97° East 500 575 31,000  Level Toronto Center
Wed 12:06:58 AM 44.0833 -79.7333 104° East 490 564 31,000  Level Toronto Center
Wed 12:07:58 AM 44.0667 -79.5167 96° East 500 575 31,000  Level Toronto Center
Wed 12:08:58 AM 44.0500 -79.3333 97° East 510 587 31,000  Level Toronto Center
Wed 12:09:58 AM 44.0333 -79.1500 97° East 510 587 31,000  Level Toronto Center
Wed 12:10:58 AM 44.0000 -78.9667 104° East 500 575 31,000  Level Toronto Center
Wed 12:11:58 AM 43.9833 -78.7833 97° East 500 575 31,000  Level Toronto Center
Wed 12:12:58 AM 43.9667 -78.5667 96° East 500 575 31,000  Level Toronto Center
Wed 12:13:58 AM 43.9333 -78.3833 104° East 500 575 31,000  Level Toronto Center
Wed 12:14:58 AM 43.9167 -78.2000 97° East 500 575 31,000  Level Toronto Center
Wed 12:15:58 AM 43.8833 -78.0167 104° East 500 575 31,000  Level Toronto Center
Wed 12:16:58 AM 43.8667 -77.8333 97° East 490 564 31,000  Level Toronto Center
Wed 12:17:58 AM 43.8500 -77.6500 97° East 490 564 31,000  Level Toronto Center
Wed 12:18:58 AM 43.8333 -77.4667 97° East 490 564 31,000  Level Toronto Center
Wed 12:19:58 AM 43.7833 -77.2500 108° East 490 564 31,000  Level Toronto Center
Wed 12:20:58 AM 43.7667 -77.0667 97° East 480 552 31,000  Level Toronto Center
Wed 12:21:58 AM 43.7500 -76.9167 99° East 500 575 31,000  Level Toronto Center
Wed 12:22:58 AM 43.7333 -76.7333 97° East 490 564 31,000  Level Toronto Center
Wed 12:23:58 AM 43.6500 -76.5500 122° Southeast 470 541 31,000  Level Toronto Center
Wed 12:24:58 AM 43.6000 -76.3833 112° Southeast 480 552 31,000  Level Toronto Center
Wed 12:25:58 AM 43.5333 -76.2333 121° Southeast 480 552 31,000  Level Toronto Center
Wed 12:26:58 AM 43.4667 -76.0667 119° Southeast 480 552 31,000  Level Toronto Center
Wed 12:27:58 AM 43.4000 -75.9000 119° Southeast 480 552 31,000  Level Toronto Center
Wed 12:28:58 AM 43.4000 -75.7167 90° East 500 575 31,000  Level Toronto Center
Wed 12:29:58 AM 43.3833 -75.5000 96° East 510 587 31,000  Level Toronto Center
Wed 12:30:58 AM 43.3833 -75.3167 90° East 510 587 31,000  Level Toronto Center
Wed 12:31:58 AM 43.3833 -75.1167 90° East 500 575 31,000  Level Toronto Center
Wed 12:32:58 AM 43.3833 -74.9333 90° East 500 575 31,000  Level Toronto Center
Wed 12:33:58 AM 43.3833 -74.7500 90° East 490 564 31,000  Level Toronto Center
Wed 12:34:58 AM 43.4000 -74.5667 83° East 500 575 31,000  Level Toronto Center
Wed 12:35:58 AM 43.3833 -74.3833 97° East 500 575 31,000  Level Toronto Center
Wed 12:36:58 AM 43.4000 -74.1667 84° East 510 587 31,000  Level Toronto Center
Wed 12:38:21 AM 43.4242 -73.9467 81° East 494 568 31,000  Level Boston Center
Wed 12:39:21 AM 43.4286 -73.7522 88° East 494 568 31,000  Level Boston Center
Wed 12:40:21 AM 43.4328 -73.5667 88° East 494 568 31,000  Level Boston Center
Wed 12:41:21 AM 43.4364 -73.3750 88° East 494 568 31,000  Level Boston Center
Wed 12:42:21 AM 43.4419 -73.1864 88° East 494 568 31,000 -150 Level Boston Center
Wed 12:43:21 AM 43.4431 -73.0350 89° East 494 568 30,700 -1,250 Descending Boston Center
Wed 12:44:21 AM 43.4500 -72.8292 87° East 494 568 28,500 -2,100 Descending Boston Center
Wed 12:45:21 AM 43.4528 -72.6489 89° East 487 560 26,500 -2,000 Descending Boston Center
Wed 12:46:21 AM 43.4550 -72.4717 89° East 472 543 24,500 -1,900 Descending Boston Center
Wed 12:47:21 AM 43.4589 -72.3000 88° East 457 526 22,700 -1,750 Descending Boston Center
Wed 12:48:21 AM 43.4586 -72.1369 90° East 435 501 21,000 -1,700 Descending Boston Center
Wed 12:49:21 AM 43.4603 -71.9797 89° East 423 487 19,300 -1,955 Descending Boston Center
Wed 12:50:33 AM 43.4614 -71.7794 89° East 406 467 16,700 -1,909 Descending Boston Center
Wed 12:51:33 AM 43.4625 -71.6306 89° East 396 456 15,100 -1,700 Descending Boston Center
Wed 12:52:33 AM 43.4614 -71.4819 91° East 386 444 13,300 -1,700 Descending Boston Center
Wed 12:53:33 AM 43.4642 -71.3389 88° East 381 438 11,700 -1,150 Descending Boston Center
Wed 12:54:33 AM 43.4650 -71.1986 89° East 376 433 11,000 -800 Descending Boston Center
Wed 12:55:33 AM 43.4842 -71.0722 78° East 343 395 10,100 -1,350 Descending Boston Center
Wed 12:56:33 AM 43.5122 -70.9658 70° East 307 353 8,300 -1,950 Descending Boston Center
Wed 12:57:33 AM 43.5378 -70.8647 71° East 285 328 6,200 -1,700 Descending Boston Center
Wed 12:58:33 AM 43.5658 -70.7753 67° East 285 328 4,900 -1,450 Descending Boston Center
Wed 12:59:33 AM 43.5997 -70.6711 66° East 275 316 3,300 -1,300 Descending Boston Center
Wed 01:00:33 AM 43.6317 -70.5928 61° Northeast 270 311 2,300 -500 Descending Boston Center
Wed 01:01:33 AM 43.6617 -70.5086 64° Northeast 228 262 2,300 -300 Level Boston Center
Wed 01:02:33 AM 43.6542 -70.4400 99° East 193 222 1,700 -750 Descending Boston Center
Wed 01:03:33 AM 43.6489 -70.3742 96° East 174 200 800 -750 Descending Boston Center
Wed 01:04:33 AM 43.6458 -70.3169 94° East 150 173 200 -350 Descending Boston Center
Wed 01:05:33 AM 43.6406 -70.2653 98° East 150 173 100 -100 Descending Boston Center

Login

Don't have an account? Register now (free) for customized features, flight alerts, and more!